^^
Station Historical Data
Daily Summary for May 20, 2017 Units:  English    Metric   Both
« Previous Day
Next Day »
Daily Weekly Monthly Yearly Custom
  High: Low: Average:
Temperature: 67.0 °F 50.7 °F 59.6 °F
Dew Point: 52.1 °F 41.3 °F 45.9 °F
Humidity: 81% 43% 61%
Wind Speed: 5.0mph 0.0mph 1mph
Wind Gust: 16.0mph - -
Wind- - WSW
Pressure: 30.34 in 30.06 in -
Precipitation: 0.00 in    
Historical Graphs
 
 
Tabular Data for May 20, 2017
Time Temperature Dew Point Pressure Wind Wind Speed Wind Gust Humidity Rainfall Rate (Hourly) Conditions
00:00 62.8 °F 52.1 °F 30.06 in Calm   6.0 mph 68% 0.00 in RA
00:15 62.2 °F 51.9 °F 30.07 in NNW 1.0 mph 10.0 mph 69% 0.00 in CLR
00:30 61.7 °F 51.8 °F 30.07 in NNW 2.0 mph 7.0 mph 70% 0.00 in CLR
00:45 61.2 °F 51.3 °F 30.07 in NNW 2.0 mph 8.0 mph 70% 0.00 in CLR
01:00 60.8 °F 51.3 °F 30.08 in North 5.0 mph 12.0 mph 71% 0.00 in CLR
02:15 58.9 °F 50.3 °F 30.11 in NW 2.0 mph 9.0 mph 73% 0.00 in CLR
02:30 58.7 °F 49.3 °F 30.11 in NW 3.0 mph 12.0 mph 71% 0.00 in CLR
02:45 58.6 °F 48.5 °F 30.10 in NNW 5.0 mph 16.0 mph 69% 0.00 in CLR
03:00 58.4 °F 48.3 °F 30.11 in NNW 2.0 mph 7.0 mph 69% 0.00 in CLR
03:15 58.1 °F 48.4 °F 30.12 in NW 1.0 mph 9.0 mph 70% 0.00 in SCT
03:30 57.9 °F 47.8 °F 30.12 in North 2.0 mph 8.0 mph 69% 0.00 in SCT
03:45 57.7 °F 48.0 °F 30.13 in NNW 2.0 mph 7.0 mph 70% 0.00 in SCT
04:00 57.5 °F 47.8 °F 30.13 in NNW 1.0 mph 8.0 mph 70% 0.00 in SCT
04:15 57.4 °F 47.7 °F 30.14 in Calm   4.0 mph 70% 0.00 in FEW
04:30 57.4 °F 47.7 °F 30.15 in Calm   6.0 mph 70% 0.00 in FEW
04:45 57.0 °F 47.7 °F 30.15 in Calm   3.0 mph 71% 0.00 in FEW
05:00 56.8 °F 47.5 °F 30.16 in Calm   3.0 mph 71% 0.00 in FEW
05:15 56.9 °F 47.2 °F 30.16 in NW 1.0 mph 3.0 mph 70% 0.00 in SCT
05:30 57.1 °F 47.0 °F 30.17 in Calm   5.0 mph 69% 0.00 in SCT
05:45 57.4 °F 45.7 °F 30.17 in Calm   7.0 mph 65% 0.00 in SCT
06:00 57.3 °F 46.0 °F 30.18 in NNW 1.0 mph 6.0 mph 66% 0.00 in SCT
06:15 57.2 °F 46.7 °F 30.22 in Calm   2.0 mph 68% 0.00 in BKN
06:30 56.9 °F 47.6 °F 30.22 in Calm   2.0 mph 71% 0.00 in BKN
06:45 56.2 °F 48.4 °F 30.22 in Calm   3.0 mph 75% 0.00 in BKN
07:00 55.9 °F 48.1 °F 30.22 in Calm   3.0 mph 75% 0.00 in BKN
07:15 56.0 °F 46.4 °F 30.23 in Calm   4.0 mph 70% 0.00 in -RA
07:30 56.2 °F 46.1 °F 30.22 in Calm   4.0 mph 69% 0.00 in -RA
07:45 56.8 °F 45.6 °F 30.23 in West 2.0 mph 7.0 mph 66% 0.00 in -RA
08:00 57.2 °F 44.3 °F 30.24 in NNW 2.0 mph 7.0 mph 62% 0.00 in -RA
08:15 57.5 °F 43.7 °F 30.25 in NW 1.0 mph 5.0 mph 60% 0.00 in BKN
08:30 57.7 °F 43.0 °F 30.25 in SSE 1.0 mph 4.0 mph 58% 0.00 in BKN
08:45 58.0 °F 42.4 °F 30.25 in Calm   5.0 mph 56% 0.00 in BKN
09:00 58.4 °F 41.3 °F 30.25 in Calm   5.0 mph 53% 0.00 in BKN
09:15 58.4 °F 41.3 °F 30.27 in ESE 1.0 mph 5.0 mph 53% 0.00 in BKN
09:30 58.8 °F 41.7 °F 30.27 in Calm   5.0 mph 53% 0.00 in BKN
09:45 58.9 °F 41.8 °F 30.28 in NNE 1.0 mph 5.0 mph 53% 0.00 in BKN
10:00 59.6 °F 41.4 °F 30.27 in NE 3.0 mph 9.0 mph 51% 0.00 in BKN
10:15 61.1 °F 42.3 °F 30.28 in Calm   6.0 mph 50% 0.00 in BKN
10:30 61.5 °F 42.7 °F 30.28 in NW 3.0 mph 10.0 mph 50% 0.00 in BKN
10:45 61.1 °F 42.3 °F 30.28 in NW 3.0 mph 9.0 mph 50% 0.00 in BKN
11:00 61.1 °F 42.3 °F 30.28 in North 2.0 mph 9.0 mph 50% 0.00 in BKN
11:15 61.8 °F 43.0 °F 30.29 in Calm   5.0 mph 50% 0.00 in OVC
11:30 61.6 °F 43.3 °F 30.29 in NNW 1.0 mph 4.0 mph 51% 0.00 in OVC
11:45 61.1 °F 43.8 °F 30.29 in Calm   3.0 mph 53% 0.00 in OVC
12:00 61.3 °F 43.0 °F 30.29 in Calm   5.0 mph 51% 0.00 in OVC
12:15 61.1 °F 42.8 °F 30.29 in NNE 1.0 mph 4.0 mph 51% 0.00 in BKN
12:30 61.2 °F 45.8 °F 30.29 in SW 1.0 mph 3.0 mph 57% 0.00 in BKN
12:45 60.5 °F 46.5 °F 30.30 in SW 1.0 mph 6.0 mph 60% 0.00 in BKN
13:00 60.5 °F 47.0 °F 30.30 in Calm   3.0 mph 61% 0.00 in BKN
13:15 61.3 °F 47.7 °F 30.30 in South 1.0 mph 3.0 mph 61% 0.00 in BKN
13:30 61.3 °F 46.8 °F 30.29 in Calm   5.0 mph 59% 0.00 in BKN
13:45 61.6 °F 46.7 °F 30.30 in SSW 2.0 mph 5.0 mph 58% 0.00 in BKN
14:00 61.3 °F 46.4 °F 30.30 in West 1.0 mph 5.0 mph 58% 0.00 in BKN
14:15 62.5 °F 47.5 °F 30.30 in Calm   3.0 mph 58% 0.00 in BKN
14:30 61.8 °F 46.4 °F 30.30 in SSW 2.0 mph 6.0 mph 57% 0.00 in BKN
14:45 61.8 °F 45.9 °F 30.30 in Calm   4.0 mph 56% 0.00 in BKN
15:15 62.1 °F 46.2 °F 30.30 in Calm   3.0 mph 56% 0.00 in BKN
15:30 62.0 °F 45.1 °F 30.30 in Calm   4.0 mph 54% 0.00 in BKN
15:45 63.1 °F 45.2 °F 30.30 in SW 2.0 mph 4.0 mph 52% 0.00 in BKN
16:00 63.7 °F 46.2 °F 30.29 in Calm   3.0 mph 53% 0.00 in BKN
16:15 63.5 °F 45.0 °F 30.30 in South 1.0 mph 4.0 mph 51% 0.00 in BKN
16:30 64.2 °F 46.2 °F 30.30 in Calm   4.0 mph 52% 0.00 in BKN
16:45 63.9 °F 45.4 °F 30.30 in SSW 1.0 mph 5.0 mph 51% 0.00 in BKN
17:00 64.8 °F 46.2 °F 30.29 in SSW 1.0 mph 4.0 mph 51% 0.00 in BKN
17:15 65.2 °F 45.6 °F 30.30 in Calm   7.0 mph 49% 0.00 in BKN
17:30 64.9 °F 44.7 °F 30.29 in WSW 1.0 mph 5.0 mph 48% 0.00 in BKN
17:45 66.2 °F 43.6 °F 30.29 in SSW 1.0 mph 6.0 mph 44% 0.00 in BKN
18:00 66.4 °F 44.9 °F 30.29 in SW 1.0 mph 6.0 mph 46% 0.00 in BKN
18:15 67.0 °F 43.8 °F 30.29 in Calm   4.0 mph 43% 0.00 in CLR
18:30 66.6 °F 44.0 °F 30.28 in SW 3.0 mph 6.0 mph 44% 0.00 in CLR
18:45 66.0 °F 44.6 °F 30.28 in SW 2.0 mph 6.0 mph 46% 0.00 in CLR
19:00 65.6 °F 44.9 °F 30.28 in SSW 2.0 mph 5.0 mph 47% 0.00 in CLR
19:15 65.3 °F 45.6 °F 30.29 in SW 1.0 mph 6.0 mph 49% 0.00 in CLR
19:30 64.2 °F 47.2 °F 30.29 in SW 3.0 mph 7.0 mph 54% 0.00 in CLR
19:45 61.7 °F 47.7 °F 30.30 in SSW 3.0 mph 7.0 mph 60% 0.00 in CLR
20:00 59.9 °F 46.9 °F 30.30 in SSW 3.0 mph 8.0 mph 62% 0.00 in CLR
20:15 58.7 °F 47.0 °F 30.30 in SW 3.0 mph 7.0 mph 65% 0.00 in CLR
20:30 57.8 °F 46.9 °F 30.30 in South 1.0 mph 7.0 mph 67% 0.00 in CLR
20:45 56.8 °F 46.7 °F 30.31 in South 1.0 mph 4.0 mph 69% 0.00 in CLR
21:00 56.5 °F 45.7 °F 30.31 in SW 3.0 mph 7.0 mph 67% 0.00 in CLR
21:15 56.1 °F 45.7 °F 30.31 in Calm   7.0 mph 68% 0.00 in CLR
21:30 55.7 °F 45.7 °F 30.32 in Calm   3.0 mph 69% 0.00 in CLR
21:45 55.2 °F 45.6 °F 30.32 in Calm   4.0 mph 70% 0.00 in CLR
22:00 54.9 °F 45.3 °F 30.33 in SSE 2.0 mph 4.0 mph 70% 0.00 in CLR
22:15 54.7 °F 45.1 °F 30.33 in Calm   4.0 mph 70% 0.00 in CLR
22:30 54.5 °F 45.3 °F 30.32 in Calm   4.0 mph 71% 0.00 in CLR
22:45 53.9 °F 45.1 °F 30.33 in Calm   2.0 mph 72% 0.00 in CLR
23:00 53.7 °F 45.2 °F 30.33 in Calm   3.0 mph 73% 0.00 in CLR
23:15 52.8 °F 45.1 °F 30.34 in Calm     75% 0.00 in CLR
23:30 51.6 °F 45.0 °F 30.34 in Calm     78% 0.00 in CLR
23:45 50.7 °F 45.1 °F 30.34 in Calm   1.0 mph 81% 0.00 in CLR
TarryTown NY Weather
Compliments of Weather Underground - 1.5 mb